Time;durP1;ratioP1;P1;durP2;ratioP2;P2;SDS_P1;SDS_P2;PMS_P1;PMS_P2;Temp;Humidity;BMP_temperature;BMP_pressure;BME280_temperature;BME280_humidity;BME280_pressure;Samples;Min_cycle;Max_cycle;Signal;HPM_P1;HPM_P2
2024/01/27 00:00:05;;;;;;;24.60;7.88;;;8.20;99.90;;;8.44;81.07;103308.59;4991962;28;20069;-65
2024/01/27 00:02:35;;;;;;;24.75;7.50;;;8.20;99.90;;;8.41;81.10;103309.34;4991829;28;20399;-66
2024/01/27 00:05:05;;;;;;;27.65;7.25;;;8.20;99.90;;;8.41;80.93;103303.16;4991645;28;20038;-66
2024/01/27 00:07:33;;;;;;;29.58;7.93;;;8.20;99.90;;;8.41;81.01;103313.69;4990975;28;20391;-66
2024/01/27 00:10:03;;;;;;;31.60;7.50;;;8.10;99.90;;;8.36;81.15;103307.34;4991699;28;20085;-66
2024/01/27 00:12:31;;;;;;;27.60;7.85;;;8.10;99.90;;;8.31;81.05;103309.78;4991473;28;20053;-67
2024/01/27 00:15:01;;;;;;;21.60;7.78;;;8.00;99.90;;;8.27;81.16;103310.47;4990770;28;20045;-66
2024/01/27 00:17:30;;;;;;;31.48;7.95;;;8.00;99.90;;;8.33;81.73;103307.19;4991526;28;20046;-67
2024/01/27 00:19:58;;;;;;;28.67;7.80;;;8.00;99.90;;;8.34;81.43;103309.91;4990332;28;20050;-67
2024/01/27 00:22:26;;;;;;;27.77;7.35;;;8.00;99.90;;;8.37;82.01;103307.41;4991464;28;20388;-67
2024/01/27 00:24:55;;;;;;;19.00;7.00;;;8.10;99.90;;;8.29;81.63;103313.16;4992493;28;20046;-67
2024/01/27 00:27:23;;;;;;;27.95;7.32;;;8.00;99.90;;;8.28;81.59;103311.38;4993586;28;20052;-66
2024/01/27 00:29:51;;;;;;;25.48;7.28;;;8.00;99.90;;;8.29;81.97;103306.16;4992844;28;20394;-66
2024/01/27 00:32:21;;;;;;;30.77;7.13;;;8.00;99.90;;;8.29;81.78;103298.25;4991713;28;20064;-66
2024/01/27 00:34:49;;;;;;;23.20;7.47;;;8.00;99.90;;;8.33;82.20;103312.47;4991990;28;20109;-67
2024/01/27 00:37:18;;;;;;;25.70;7.15;;;8.00;99.90;;;8.31;81.69;103314.13;4991497;28;20046;-66
2024/01/27 00:39:46;;;;;;;27.58;7.75;;;8.10;99.90;;;8.29;81.89;103315.78;4991217;28;20038;-66
2024/01/27 00:42:16;;;;;;;26.08;7.72;;;8.00;99.90;;;8.25;81.58;103313.84;4994378;28;20491;-67
2024/01/27 00:44:44;;;;;;;25.33;7.22;;;8.00;99.90;;;8.17;81.35;103314.41;4997048;28;20060;-66
2024/01/27 00:47:13;;;;;;;21.88;8.00;;;8.00;99.90;;;8.13;81.49;103325.63;4996179;28;20419;-67
2024/01/27 00:49:43;;;;;;;22.00;7.45;;;7.90;99.90;;;8.13;81.48;103320.38;4996190;28;20044;-67
2024/01/27 00:52:12;;;;;;;22.90;7.10;;;7.90;99.90;;;8.16;81.26;103315.25;4997259;28;20058;-67
2024/01/27 00:54:41;;;;;;;27.10;7.30;;;8.00;99.90;;;8.18;81.21;103323.22;4997444;28;20061;-67
2024/01/27 00:57:09;;;;;;;23.80;7.05;;;8.00;99.90;;;8.19;81.65;103317.09;4996956;28;20031;-66
2024/01/27 00:59:38;;;;;;;27.17;6.63;;;7.90;99.90;;;8.20;81.95;103330.38;4995774;28;20050;-66
2024/01/27 01:02:08;;;;;;;21.52;6.75;;;7.90;99.90;;;8.17;82.04;103324.94;4997061;28;20046;-66
2024/01/27 01:04:37;;;;;;;20.67;6.70;;;7.90;99.90;;;8.16;81.97;103324.88;4995842;28;20109;-66
2024/01/27 01:07:07;;;;;;;25.85;7.28;;;7.90;99.90;;;8.16;81.76;103331.06;4996665;28;20129;-67
2024/01/27 01:09:35;;;;;;;25.20;7.38;;;7.90;99.90;;;8.04;81.91;103338.41;4996763;28;20065;-66
2024/01/27 01:12:05;;;;;;;19.48;6.97;;;7.80;99.90;;;8.04;82.23;103337.50;4996843;28;20081;-67
2024/01/27 01:14:33;;;;;;;22.95;7.03;;;7.80;99.90;;;7.26;82.17;103200.41;4996816;28;20046;-67
2024/01/27 01:17:02;;;;;;;25.33;6.88;;;7.80;99.90;;;8.03;82.94;103327.81;4996518;28;20086;-69
2024/01/27 01:19:30;;;;;;;19.52;6.90;;;7.80;99.90;;;8.03;82.76;103333.06;4995555;28;20046;-67
2024/01/27 01:21:59;;;;;;;25.83;7.30;;;7.70;99.90;;;7.99;82.43;103329.38;4996644;28;20047;-65
2024/01/27 01:24:28;;;;;;;23.00;6.95;;;7.70;99.90;;;8.00;82.63;103325.00;4996868;28;20073;-67
2024/01/27 01:26:57;;;;;;;23.53;6.70;;;7.70;99.90;;;8.00;82.65;103323.28;4996648;28;20046;-66
2024/01/27 01:29:25;;;;;;;25.50;6.80;;;7.70;99.90;;;7.98;82.99;103327.59;4995234;28;20300;-66
2024/01/27 01:31:54;;;;;;;24.23;6.93;;;7.70;99.90;;;7.96;82.67;103323.97;4996422;28;20050;-66
2024/01/27 01:34:23;;;;;;;22.00;7.50;;;7.70;99.90;;;7.95;82.82;103327.47;4996263;28;20045;-67
2024/01/27 01:36:51;;;;;;;23.60;7.00;;;7.70;99.90;;;7.75;82.92;103288.75;4996667;28;20070;-67
2024/01/27 01:39:19;;;;;;;27.27;7.10;;;7.70;99.90;;;7.84;82.77;103312.00;4996046;28;20041;-67
2024/01/27 01:41:49;;;;;;;25.83;7.28;;;7.60;99.90;;;7.79;82.67;103308.22;4996279;28;20543;-66
2024/01/27 01:44:18;;;;;;;25.55;7.13;;;7.60;99.90;;;7.76;82.86;103316.88;4996317;28;20046;-66
2024/01/27 01:46:46;;;;;;;19.67;6.55;;;7.50;99.90;;;7.72;82.93;103322.88;4996138;28;20097;-66
2024/01/27 01:49:15;;;;;;;17.75;6.47;;;7.50;99.90;;;7.66;82.95;103326.94;4996046;28;20039;-67
2024/01/27 01:51:43;;;;;;;21.90;7.50;;;7.40;99.90;;;7.61;83.01;103321.44;4996270;28;20095;-66
2024/01/27 01:54:13;;;;;;;30.58;7.15;;;7.30;99.90;;;7.54;83.64;103319.38;4995367;28;20077;-66
2024/01/27 01:56:43;;;;;;;17.08;6.20;;;7.30;99.90;;;7.53;84.27;103314.03;4996378;28;20046;-66
2024/01/27 01:59:13;;;;;;;22.23;6.88;;;7.30;99.90;;;7.57;84.54;103327.41;4996141;28;20052;-67
2024/01/27 02:01:41;;;;;;;21.45;6.63;;;7.30;99.90;;;7.59;85.39;103327.50;4996018;28;20125;-67
2024/01/27 02:04:13;;;;;;;25.88;7.00;;;7.30;99.90;;;7.58;85.17;103316.06;4996002;28;20041;-66
2024/01/27 02:06:41;;;;;;;26.60;7.00;;;7.30;99.90;;;7.61;85.17;103331.97;4995977;28;20038;-67
2024/01/27 02:09:11;;;;;;;22.85;6.40;;;7.40;99.90;;;7.58;85.29;103345.03;4995789;28;20093;-66
2024/01/27 02:11:39;;;;;;;22.42;6.68;;;7.30;99.90;;;7.52;85.61;103326.28;4995351;28;20389;-66
2024/01/27 02:14:08;;;;;;;30.17;7.40;;;7.40;99.90;;;7.63;86.17;103334.69;4994300;28;20049;-67
2024/01/27 02:16:38;;;;;;;23.17;7.28;;;7.40;99.90;;;7.59;86.11;103325.75;4995724;28;20387;-66
2024/01/27 02:19:07;;;;;;;21.42;6.53;;;7.40;99.90;;;7.65;86.20;103333.03;4995545;28;20151;-67
2024/01/27 02:21:35;;;;;;;22.23;6.85;;;7.40;99.90;;;7.62;86.19;103339.06;4995159;28;20030;-66
2024/01/27 02:24:09;;;;;;;23.13;7.30;;;7.40;99.90;;;7.59;86.10;103340.66;4995523;28;20042;-66
2024/01/27 02:26:38;;;;;;;21.30;6.75;;;7.40;99.90;;;7.61;85.97;103334.63;4994251;28;20468;-66
2024/01/27 02:29:06;;;;;;;18.85;7.18;;;7.40;99.90;;;7.66;85.83;103335.75;4995717;28;20148;-67
2024/01/27 02:31:34;;;;;;;19.35;6.40;;;7.40;99.90;;;7.65;85.78;103326.03;4995081;28;20045;-66
2024/01/27 02:34:03;;;;;;;22.33;6.70;;;7.40;99.90;;;7.68;85.26;103331.47;4994252;28;20484;-67
2024/01/27 02:36:31;;;;;;;21.85;7.00;;;7.40;99.90;;;7.65;85.77;103335.66;4995001;28;20430;-66
2024/01/27 02:39:00;;;;;;;22.52;7.63;;;7.40;99.90;;;7.62;85.18;103335.53;4995362;28;20054;-66
2024/01/27 02:41:30;;;;;;;19.27;7.30;;;7.40;99.90;;;7.52;85.15;103339.47;4995129;28;20097;-67
2024/01/27 02:43:58;;;;;;;24.33;6.85;;;7.30;99.90;;;7.50;85.48;103338.47;4995377;28;20048;-66
2024/01/27 02:46:26;;;;;;;25.05;7.10;;;7.30;99.90;;;7.55;85.69;103336.06;4995496;28;20403;-66
2024/01/27 02:48:55;;;;;;;25.42;7.93;;;7.30;99.90;;;7.56;86.03;103332.59;4993976;28;20578;-67
2024/01/27 02:51:23;;;;;;;20.00;6.88;;;7.30;99.90;;;7.58;85.72;103337.13;4995043;28;20072;-67
2024/01/27 02:53:52;;;;;;;22.00;7.10;;;7.30;99.90;;;7.50;86.22;103335.84;4995056;28;20396;-66
2024/01/27 02:56:20;;;;;;;24.00;7.20;;;7.30;99.90;;;7.50;86.54;103327.94;4994938;28;20552;-67
2024/01/27 02:58:50;;;;;;;21.27;7.18;;;7.30;99.90;;;7.40;86.63;103328.34;4994747;28;20488;-67
2024/01/27 03:01:18;;;;;;;29.70;8.23;;;7.20;99.90;;;7.37;86.83;103332.56;4995022;28;20042;-67
2024/01/27 03:03:47;;;;;;;30.60;8.57;;;7.20;99.90;;;7.36;86.66;103326.38;4994515;28;20368;-66
2024/01/27 03:06:15;;;;;;;27.08;7.85;;;7.10;99.90;;;7.33;87.02;103331.50;4993984;28;20081;-67
2024/01/27 03:08:44;;;;;;;25.73;8.32;;;7.10;99.90;;;7.32;86.91;103334.97;4994508;28;20038;-67
2024/01/27 03:11:12;;;;;;;24.58;8.82;;;7.10;99.90;;;7.23;86.80;103345.06;4993099;28;20074;-66
2024/01/27 03:13:44;;;;;;;23.08;8.23;;;7.00;99.90;;;7.23;87.38;103350.31;4994355;28;20061;-67
2024/01/27 03:16:14;;;;;;;23.00;8.98;;;7.00;99.90;;;7.21;87.63;103352.88;4993311;28;20057;-67
2024/01/27 03:18:43;;;;;;;24.88;8.77;;;7.00;99.90;;;7.21;88.21;103346.69;4994206;28;20467;-66
2024/01/27 03:21:11;;;;;;;25.45;9.30;;;7.00;99.90;;;7.24;88.33;103336.31;4994065;28;20049;-67
2024/01/27 03:23:39;;;;;;;24.80;9.75;;;7.00;99.90;;;7.30;88.20;103336.59;4994186;28;20382;-66
2024/01/27 03:26:08;;;;;;;27.58;8.82;;;7.00;99.90;;;7.28;88.75;103340.91;4994068;28;20687;-67
2024/01/27 03:28:36;;;;;;;26.30;10.45;;;7.00;99.90;;;7.22;88.81;103345.88;4994388;28;20050;-66
2024/01/27 03:31:05;;;;;;;27.90;9.32;;;7.00;99.90;;;7.19;89.13;103337.84;4994290;28;20066;-67
2024/01/27 03:33:34;;;;;;;20.52;9.48;;;6.90;99.90;;;7.23;88.84;103331.88;4994292;28;20050;-66
2024/01/27 03:36:03;;;;;;;22.10;9.23;;;7.00;99.90;;;7.21;89.02;103349.34;4994217;28;20069;-67
2024/01/27 03:38:31;;;;;;;23.92;10.27;;;7.00;99.90;;;7.20;88.89;103350.19;4993870;28;20052;-67
2024/01/27 03:41:00;;;;;;;24.13;9.40;;;6.90;99.90;;;7.10;89.18;103347.91;4993742;28;20119;-67
2024/01/27 03:43:28;;;;;;;24.75;10.43;;;6.90;99.90;;;7.11;89.34;103344.44;4992821;28;20125;-67
2024/01/27 03:45:56;;;;;;;24.77;9.82;;;6.80;99.90;;;7.08;89.88;103341.66;4993991;28;20054;-66
2024/01/27 03:48:25;;;;;;;25.55;10.52;;;6.80;99.90;;;6.98;89.63;103313.09;4994016;28;20088;-66
2024/01/27 03:50:55;;;;;;;23.20;11.52;;;6.80;99.90;;;7.16;89.48;103327.16;4993965;28;20128;-67
2024/01/27 03:53:24;;;;;;;30.23;11.65;;;6.90;99.90;;;7.16;89.64;103332.44;4994227;28;20097;-67
2024/01/27 03:55:52;;;;;;;31.95;11.57;;;6.90;99.90;;;7.16;89.75;103324.53;4992587;28;20100;-66
2024/01/27 03:58:21;;;;;;;25.08;11.68;;;6.90;99.90;;;7.13;89.94;103327.00;4992647;28;20164;-66
2024/01/27 04:00:49;;;;;;;34.50;12.30;;;6.90;99.90;;;7.13;89.84;103313.84;4993431;28;20042;-66
2024/01/27 04:03:18;;;;;;;31.73;11.27;;;6.90;99.90;;;7.13;89.77;103311.22;4993621;28;20046;-66
2024/01/27 04:05:46;;;;;;;30.33;11.68;;;6.90;99.90;;;7.13;89.81;103327.91;4993555;28;20045;-66
2024/01/27 04:08:16;;;;;;;28.13;12.40;;;6.90;99.90;;;7.12;89.71;103343.63;4993609;28;20054;-67
2024/01/27 04:10:45;;;;;;;25.92;11.48;;;6.90;99.90;;;7.08;89.52;103339.03;4993414;28;20046;-67
2024/01/27 04:13:13;;;;;;;24.75;11.00;;;6.90;99.90;;;7.00;89.89;103345.66;4993948;28;20054;-67
2024/01/27 04:15:41;;;;;;;22.98;11.48;;;6.80;99.90;;;6.97;89.86;103349.03;4993081;28;20404;-66
2024/01/27 04:18:11;;;;;;;31.95;12.82;;;6.80;99.90;;;7.05;90.25;103354.66;4993594;28;20042;-67
2024/01/27 04:20:40;;;;;;;34.30;12.45;;;6.80;99.90;;;7.06;89.85;103356.47;4993596;28;20050;-67
2024/01/27 04:23:08;;;;;;;31.17;12.43;;;6.80;99.90;;;7.07;90.42;103351.28;4993548;28;20097;-67
2024/01/27 04:25:38;;;;;;;25.42;12.32;;;6.80;99.90;;;7.06;90.23;103346.88;4993579;28;20062;-67
2024/01/27 04:28:09;;;;;;;27.33;11.53;;;6.80;99.90;;;7.02;90.05;103342.28;4993258;28;20468;-66
2024/01/27 04:30:37;;;;;;;25.30;11.65;;;6.80;99.90;;;7.04;90.13;103339.72;4992392;28;20053;-66
2024/01/27 04:33:07;;;;;;;26.42;12.50;;;6.80;99.90;;;7.02;90.15;103341.38;4993169;28;20084;-66
2024/01/27 04:35:36;;;;;;;24.23;13.30;;;6.80;99.90;;;6.95;89.59;103337.50;4992342;28;20043;-66
2024/01/27 04:38:04;;;;;;;24.60;12.15;;;6.70;99.90;;;6.60;88.70;103332.19;4993193;28;20401;-66
2024/01/27 04:40:35;;;;;;;22.23;11.95;;;6.40;99.90;;;6.43;89.01;103333.06;4993363;28;20424;-67
2024/01/27 04:43:05;;;;;;;31.15;13.10;;;6.20;99.90;;;6.52;89.64;103328.31;4993396;28;20537;-67
2024/01/27 04:45:33;;;;;;;30.10;13.15;;;6.20;99.90;;;6.62;89.83;103335.81;4993455;28;20038;-67
2024/01/27 04:48:02;;;;;;;29.27;12.57;;;6.40;99.90;;;6.65;90.38;103341.25;4993136;28;20039;-67
2024/01/27 04:50:30;;;;;;;30.60;13.13;;;6.40;99.90;;;6.56;90.26;103313.59;4993176;28;20046;-66
2024/01/27 04:52:59;;;;;;;34.90;13.02;;;6.40;99.90;;;6.66;89.91;103342.16;4991909;28;20065;-68
2024/01/27 04:55:27;;;;;;;28.88;12.13;;;6.40;99.90;;;6.70;89.99;103329.22;4993346;28;20088;-67
2024/01/27 04:57:55;;;;;;;26.27;12.32;;;6.40;99.90;;;6.76;89.49;103336.50;4991744;28;20051;-67
2024/01/27 05:00:26;;;;;;;23.80;11.75;;;6.50;99.90;;;6.76;89.89;103331.25;4993060;28;20038;-67
2024/01/27 05:02:55;;;;;;;24.08;12.73;;;6.50;99.90;;;6.76;89.71;103329.53;4993232;28;20046;-67
2024/01/27 05:05:24;;;;;;;25.35;12.48;;;6.50;99.90;;;6.80;89.41;103335.84;4992939;28;20034;-67
2024/01/27 05:07:52;;;;;;;27.08;11.88;;;6.60;99.90;;;6.77;89.58;103328.72;4993482;28;20053;-67
2024/01/27 05:10:22;;;;;;;28.35;12.02;;;6.50;99.90;;;6.78;89.47;103326.97;4992929;28;20435;-67
2024/01/27 05:12:50;;;;;;;31.83;12.02;;;6.50;99.90;;;6.62;89.71;103306.00;4993107;28;20060;-66
2024/01/27 05:15:19;;;;;;;23.88;12.18;;;6.50;99.90;;;6.75;89.86;103332.09;4992961;28;20041;-67
2024/01/27 05:17:48;;;;;;;26.00;12.48;;;6.50;99.90;;;6.77;89.94;103331.34;4993420;28;20038;-66
2024/01/27 05:20:18;;;;;;;30.95;13.25;;;6.50;99.90;;;6.64;89.95;103309.63;4992847;28;20038;-66
2024/01/27 05:22:46;;;;;;;31.42;13.45;;;6.60;99.90;;;6.82;89.48;103339.47;4992702;28;20096;-67
2024/01/27 05:25:16;;;;;;;31.95;13.35;;;6.60;99.90;;;6.81;89.17;103340.31;4992732;28;20046;-67
2024/01/27 05:27:44;;;;;;;27.92;11.77;;;6.60;99.90;;;6.82;89.30;103339.47;4993423;28;20050;-67
2024/01/27 05:30:14;;;;;;;29.63;12.23;;;6.60;99.90;;;6.74;89.28;103332.91;4996995;28;20046;-66
2024/01/27 05:32:42;;;;;;;25.45;12.05;;;6.60;99.90;;;6.84;89.14;103343.06;4994879;28;20081;-66
2024/01/27 05:35:12;;;;;;;30.27;12.27;;;6.60;99.90;;;6.82;88.87;103339.47;4996096;28;20030;-66
2024/01/27 05:37:41;;;;;;;24.75;12.32;;;6.60;99.90;;;6.82;88.48;103339.47;4996355;28;20042;-67
2024/01/27 05:40:10;;;;;;;27.75;12.75;;;6.60;99.90;;;6.75;88.74;103345.25;4996614;28;20078;-67
2024/01/27 05:42:40;;;;;;;23.80;11.93;;;6.50;99.90;;;6.79;89.17;103342.84;4996215;28;20057;-66
2024/01/27 05:45:10;;;;;;;34.60;12.07;;;6.60;99.90;;;6.03;89.20;103197.81;4996294;28;20050;-67
2024/01/27 05:47:38;;;;;;;28.63;12.02;;;6.60;99.90;;;6.87;89.59;103359.91;4996207;28;20097;-66
2024/01/27 05:50:08;;;;;;;24.77;12.43;;;6.60;99.90;;;6.90;90.14;103343.38;4996155;28;20098;-66
2024/01/27 05:52:38;;;;;;;29.73;13.73;;;6.70;99.90;;;6.93;90.34;103348.81;4994857;28;20046;-67
2024/01/27 05:55:08;;;;;;;33.17;13.00;;;6.70;99.90;;;6.98;90.64;103342.03;4996166;28;20054;-66
2024/01/27 05:57:37;;;;;;;28.70;12.75;;;6.80;99.90;;;7.00;90.73;103335.13;4995757;28;20281;-66
2024/01/27 06:00:09;;;;;;;25.77;12.50;;;6.80;99.90;;;7.04;91.05;103332.72;4995767;28;20092;-66
2024/01/27 06:02:37;;;;;;;26.35;12.57;;;6.80;99.90;;;6.99;90.61;103330.66;4996017;28;20042;-67
2024/01/27 06:05:08;;;;;;;28.25;12.93;;;6.80;99.90;;;6.98;91.01;103332.44;4995744;28;20042;-67
2024/01/27 06:07:41;;;;;;;26.02;13.50;;;6.80;99.90;;;6.98;90.75;103319.28;4995764;28;20042;-66
2024/01/27 06:10:10;;;;;;;30.77;13.32;;;6.80;99.90;;;6.97;91.22;103327.97;4994483;28;20054;-67
2024/01/27 06:12:40;;;;;;;27.63;12.48;;;6.70;99.90;;;6.99;91.17;103325.41;4995780;28;20065;-67
2024/01/27 06:15:10;;;;;;;25.70;13.05;;;6.70;99.90;;;7.02;90.93;103325.59;4995766;28;20042;-67
2024/01/27 06:17:39;;;;;;;29.20;13.60;;;6.70;99.90;;;7.06;91.14;103325.81;4995673;28;20038;-67
2024/01/27 06:20:09;;;;;;;30.83;13.35;;;6.80;99.90;;;6.93;91.00;103298.81;4995640;28;20371;-67
2024/01/27 06:22:38;;;;;;;37.30;14.25;;;6.80;99.90;;;7.05;91.17;103330.97;4996023;28;20125;-67
2024/01/27 06:25:10;;;;;;;30.35;13.50;;;6.80;99.90;;;6.96;90.90;103341.97;4995386;28;20121;-66
2024/01/27 06:27:41;;;;;;;25.02;12.32;;;6.70;99.90;;;6.91;91.47;103335.56;4994400;28;20070;-67
2024/01/27 06:30:10;;;;;;;;;;;6.70;99.90;;;6.91;91.69;103345.19;4994662;28;20101;-66
2024/01/27 06:32:39;;;;;;;31.58;13.35;;;6.70;99.90;;;6.84;91.35;103341.34;4995528;28;19929;-67
2024/01/27 06:35:08;;;;;;;25.50;13.45;;;6.60;99.90;;;6.83;91.50;103346.53;4995396;28;20041;-67
2024/01/27 06:37:37;;;;;;;31.27;14.37;;;6.60;99.90;;;6.90;91.59;103353.91;4994320;28;20057;-66
2024/01/27 06:40:09;;;;;;;28.38;15.02;;;6.60;99.90;;;6.88;91.76;103355.56;4994454;28;20042;-66
2024/01/27 06:42:38;;;;;;;30.30;13.07;;;6.60;99.90;;;6.86;91.27;103354.56;4993131;28;20394;-66
2024/01/27 06:45:07;;;;;;;25.35;13.25;;;6.60;99.90;;;6.84;91.36;103358.84;4992937;28;20030;-66
2024/01/27 06:47:36;;;;;;;33.75;14.05;;;6.60;99.90;;;6.17;91.05;103257.25;4993092;28;20126;-66
2024/01/27 06:50:06;;;;;;;30.33;13.95;;;6.50;99.90;;;6.66;91.23;103364.06;4991890;28;20050;-65
2024/01/27 06:52:34;;;;;;;26.88;14.07;;;6.40;99.90;;;6.47;91.34;103340.28;4992834;28;20093;-65
2024/01/27 06:55:03;;;;;;;29.55;13.57;;;6.40;99.90;;;6.55;91.45;103354.75;4993181;28;20451;-66
2024/01/27 06:57:32;;;;;;;32.67;13.57;;;6.30;99.90;;;6.56;91.26;103358.28;4992731;28;20047;-67
2024/01/27 07:00:02;;;;;;;25.63;13.75;;;6.30;99.90;;;6.47;91.52;103352.53;4993422;28;20372;-66
2024/01/27 07:02:31;;;;;;;27.35;14.88;;;6.30;99.90;;;6.49;91.81;103357.06;4992596;28;20038;-66
2024/01/27 07:04:59;;;;;;;23.63;14.05;;;6.30;99.90;;;6.48;91.84;103360.53;4992603;28;20092;-66
2024/01/27 07:07:30;;;;;;;25.85;14.57;;;6.20;99.90;;;6.47;91.99;103356.06;4991687;28;20054;-66
2024/01/27 07:09:59;;;;;;;30.38;14.02;;;6.30;99.90;;;6.30;92.38;103334.16;4991567;28;20149;-66
2024/01/27 07:12:27;;;;;;;26.48;14.18;;;6.20;99.90;;;6.48;92.65;103350.00;4990964;28;20054;-69
2024/01/27 07:14:59;;;;;;;29.08;14.48;;;6.20;99.90;;;6.48;92.60;103362.22;4991257;28;20134;-66
2024/01/27 07:17:28;;;;;;;30.85;14.48;;;6.20;99.90;;;6.50;92.87;103360.59;4991050;28;20057;-67
2024/01/27 07:19:56;;;;;;;26.95;14.10;;;6.30;99.90;;;6.47;92.87;103353.44;4992767;28;20041;-66
2024/01/27 07:22:25;;;;;;;25.58;14.95;;;6.30;99.90;;;6.41;92.94;103344.34;4992197;28;20038;-68
2024/01/27 07:24:53;;;;;;;24.13;14.15;;;6.30;99.90;;;6.50;92.89;103353.63;4991178;28;20045;-67
2024/01/27 07:27:23;;;;;;;32.88;14.90;;;6.30;99.90;;;6.55;92.33;103354.75;4992229;28;20165;-69
2024/01/27 07:29:51;;;;;;;25.35;13.15;;;6.30;99.90;;;6.57;92.03;103350.47;4991103;28;20050;-67
2024/01/27 07:32:22;;;;;;;25.70;14.82;;;6.40;99.90;;;6.50;91.02;103352.69;4992337;28;20687;-68
2024/01/27 07:34:50;;;;;;;;;;;6.30;99.90;;;6.46;90.42;103356.00;4992947;28;20054;-67
2024/01/27 07:37:20;;;;;;;27.92;14.40;;;6.30;99.90;;;6.40;90.20;103356.59;4991998;28;19956;-66
2024/01/27 07:39:50;;;;;;;25.95;13.55;;;6.20;99.90;;;6.41;90.48;103350.47;4992364;28;20042;-69
2024/01/27 07:42:18;;;;;;;24.70;14.32;;;6.20;99.90;;;6.46;90.44;103345.47;4992282;28;20085;-68
2024/01/27 07:44:46;;;;;;;24.85;13.88;;;6.20;99.90;;;6.57;90.49;103360.97;4991935;28;20137;-66
2024/01/27 07:47:15;;;;;;;27.30;14.57;;;6.30;99.90;;;6.52;90.97;103353.69;4991989;28;20471;-66
2024/01/27 07:49:45;;;;;;;27.65;15.68;;;6.20;99.90;;;6.34;91.08;103357.16;4991928;28;20526;-65
2024/01/27 07:52:13;;;;;;;28.38;14.55;;;6.10;99.90;;;6.43;92.25;103361.09;4992279;28;20068;-65
2024/01/27 07:54:42;;;;;;;29.08;14.82;;;6.20;99.90;;;6.48;92.88;103341.19;4991498;28;20046;-63
2024/01/27 07:57:11;;;;;;;31.10;14.55;;;6.30;99.90;;;6.78;93.08;103351.56;4992634;28;20050;-66
2024/01/27 07:59:40;;;;;;;30.50;14.93;;;6.50;99.90;;;7.13;92.72;103353.31;4991891;28;20672;-66
2024/01/27 08:02:09;;;;;;;31.95;13.70;;;6.80;99.90;;;7.39;92.35;103347.59;4992857;28;20082;-65
2024/01/27 08:04:39;;;;;;;37.75;15.48;;;7.10;99.90;;;7.44;91.51;103353.97;4992308;28;20424;-65
2024/01/27 08:07:10;;;;;;;33.50;14.77;;;7.30;99.90;;;7.52;91.47;103357.88;4992698;28;20038;-67
2024/01/27 08:09:39;;;;;;;31.08;14.95;;;7.30;99.90;;;7.71;91.08;103360.56;4993005;28;20077;-64
2024/01/27 08:12:08;;;;;;;30.95;14.55;;;7.50;99.90;;;7.88;90.27;103367.53;4992092;28;20057;-67
2024/01/27 08:14:36;;;;;;;34.35;15.60;;;7.60;99.90;;;7.99;89.63;103371.53;4992822;28;20515;-66
2024/01/27 08:17:05;;;;;;;28.20;14.02;;;7.80;99.90;;;8.33;88.61;103384.56;4993093;28;20447;-66
2024/01/27 08:19:34;;;;;;;32.88;14.35;;;8.00;99.90;;;8.59;87.41;103373.47;4993379;28;20497;-66
2024/01/27 08:22:03;;;;;;;33.00;14.80;;;8.40;99.90;;;8.87;86.38;103381.72;4992933;28;20440;-67
2024/01/27 08:24:32;;;;;;;35.95;14.13;;;8.60;99.90;;;9.14;84.81;103391.66;4992688;28;20042;-66
2024/01/27 08:27:01;;;;;;;28.60;13.68;;;8.80;99.90;;;9.32;83.32;103398.59;4992350;28;20046;-66
2024/01/27 08:29:30;;;;;;;25.42;13.15;;;9.10;99.90;;;9.45;81.99;103403.53;4992201;28;20502;-67
2024/01/27 08:31:58;;;;;;;31.90;13.15;;;9.20;99.90;;;9.66;81.15;103395.53;4992765;28;20042;-67
2024/01/27 08:34:27;;;;;;;37.35;13.98;;;9.40;99.90;;;9.88;79.78;103401.75;4993137;28;20400;-67
2024/01/27 08:37:02;;;;;;;26.45;12.15;;;9.70;99.90;;;10.04;78.71;103404.13;4994441;28;20038;-67
2024/01/27 08:39:32;;;;;;;26.33;12.63;;;9.90;99.90;;;10.22;77.88;103417.19;4994210;28;20069;-67
2024/01/27 08:42:01;;;;;;;24.27;12.30;;;10.10;99.90;;;10.38;77.43;103413.38;4995188;28;20468;-66
2024/01/27 08:44:29;;;;;;;30.38;12.43;;;10.20;99.90;;;10.54;76.42;103442.22;4994287;28;20384;-67
2024/01/27 08:46:58;;;;;;;23.73;12.38;;;10.40;99.90;;;10.82;75.30;103408.84;4993766;28;20125;-66
2024/01/27 08:49:29;;;;;;;24.45;12.25;;;10.60;99.90;;;11.11;74.56;103411.63;4994308;28;20046;-67
2024/01/27 08:51:58;;;;;;;19.40;11.27;;;10.90;99.90;;;11.42;73.37;103399.44;4994558;28;20105;-67
2024/01/27 08:54:26;;;;;;;24.70;11.50;;;11.20;99.90;;;11.71;72.30;103403.94;4994449;28;20423;-67
2024/01/27 08:56:56;;;;;;;27.02;11.55;;;11.50;99.90;;;11.90;70.98;103399.22;4993816;28;20042;-67
2024/01/27 08:59:25;;;;;;;24.33;11.20;;;11.70;99.90;;;11.77;69.81;103408.53;4995594;28;20403;-67
2024/01/27 09:01:53;;;;;;;23.45;10.77;;;11.60;99.90;;;11.63;69.48;103394.81;4994717;28;20097;-67
2024/01/27 09:04:22;;;;;;;19.85;10.60;;;11.40;99.90;;;11.54;69.34;103402.50;4998003;28;20383;-67
2024/01/27 09:06:50;;;;;;;22.52;11.65;;;11.30;99.90;;;11.45;69.68;103409.25;4997932;28;20046;-67
2024/01/27 09:09:18;;;;;;;25.05;11.48;;;11.20;99.90;;;11.47;70.31;103400.50;4997452;28;20073;-68
2024/01/27 09:11:48;;;;;;;26.83;11.00;;;11.20;99.90;;;11.55;70.49;103419.31;4997595;28;20050;-67
2024/01/27 09:14:18;;;;;;;24.10;11.77;;;11.30;99.90;;;11.67;70.50;103430.34;4997815;28;20042;-67
2024/01/27 09:16:47;;;;;;;26.33;10.90;;;11.40;99.90;;;11.85;70.46;103440.59;4998010;28;20069;-67
2024/01/27 09:19:15;;;;;;;21.73;10.43;;;11.60;99.90;;;12.10;69.99;103435.25;4998166;28;20104;-67
2024/01/27 09:21:44;;;;;;;24.15;11.02;;;11.80;99.90;;;12.34;69.23;103435.97;4997094;28;20050;-67
2024/01/27 09:24:12;;;;;;;22.27;10.88;;;12.00;99.90;;;12.62;68.27;103435.88;4997704;28;20117;-67
2024/01/27 09:26:44;;;;;;;25.15;10.82;;;12.30;99.90;;;12.89;67.97;103430.47;4997514;28;20188;-67
2024/01/27 09:29:13;;;;;;;20.13;10.52;;;12.60;99.90;;;13.26;67.03;103423.50;4997584;28;20044;-68
2024/01/27 09:31:43;;;;;;;25.27;10.85;;;13.00;99.90;;;13.36;65.43;103422.91;4997302;28;20499;-68
2024/01/27 09:34:12;;;;;;;22.63;10.50;;;13.20;99.90;;;13.45;65.16;103428.44;4995972;28;20046;-68
2024/01/27 09:36:41;;;;;;;21.17;10.45;;;13.20;99.90;;;13.53;64.94;103436.59;4997620;28;20038;-67
2024/01/27 09:39:09;;;;;;;20.23;10.38;;;13.30;99.90;;;13.65;64.67;103430.66;4998965;28;20097;-67
2024/01/27 09:41:38;;;;;;;24.42;10.32;;;13.40;99.90;;;13.80;64.73;103433.72;4997300;28;20034;-67
2024/01/27 09:44:07;;;;;;;19.77;10.38;;;13.50;99.90;;;13.97;64.34;103435.00;4996016;28;20035;-68
2024/01/27 09:46:35;;;;;;;21.27;10.27;;;13.70;99.90;;;13.74;63.17;103377.72;4996434;28;20076;-67
2024/01/27 09:49:05;;;;;;;19.35;10.27;;;13.80;99.90;;;14.19;62.87;103453.25;4996405;28;20116;-67
2024/01/27 09:51:34;;;;;;;21.13;10.05;;;13.90;99.90;;;14.34;62.89;103467.81;4994550;28;20137;-67
2024/01/27 09:54:04;;;;;;;21.55;9.75;;;14.10;99.90;;;14.51;62.72;103467.28;4996167;28;20442;-67
2024/01/27 09:56:32;;;;;;;20.20;9.85;;;14.30;99.90;;;14.51;62.54;103422.00;4995781;28;20041;-67
2024/01/27 09:59:02;;;;;;;20.10;10.20;;;14.50;99.90;;;14.82;61.98;103464.38;4995981;28;20467;-68
2024/01/27 10:01:31;;;;;;;22.00;10.15;;;14.50;99.90;;;14.95;61.57;103456.66;4994965;28;20046;-67
2024/01/27 10:03:59;;;;;;;24.35;10.65;;;14.70;99.90;;;14.50;61.06;103362.50;4995490;28;20038;-67
2024/01/27 10:06:29;;;;;;;22.98;10.77;;;14.90;99.90;;;15.21;60.66;103470.50;4994608;28;20038;-67
2024/01/27 10:08:58;;;;;;;21.05;10.23;;;15.00;99.90;;;15.32;60.07;103477.81;4994734;28;20042;-67
2024/01/27 10:11:28;;;;;;;21.25;9.68;;;15.10;99.90;;;15.33;59.86;103460.91;4994024;28;20104;-67
2024/01/27 10:13:57;;;;;;;20.83;9.93;;;15.20;99.90;;;15.46;59.38;103474.50;4992094;28;20096;-67
2024/01/27 10:16:28;;;;;;;24.05;10.15;;;15.20;99.90;;;15.51;59.13;103476.38;4993610;28;20092;-67
2024/01/27 10:19:04;;;;;;;22.33;9.93;;;15.20;99.90;;;15.56;58.64;103474.72;4993789;28;20046;-67